createdAt,value
2024-03-03T00:00:07.216Z,93753.88
2024-03-03T00:01:10.994Z,93760.81
2024-03-03T00:02:13.027Z,93755.75
2024-03-03T00:03:15.672Z,93750.72
2024-03-03T00:04:20.325Z,93758.88
2024-03-03T00:05:22.407Z,93756.97
2024-03-03T00:06:24.412Z,93760.56
2024-03-03T00:07:27.312Z,93761.53
2024-03-03T00:08:29.658Z,93755.06
2024-03-03T00:09:33.375Z,93759.16
2024-03-03T00:10:35.312Z,93761.06
2024-03-03T00:11:38.270Z,93766.34
2024-03-03T00:12:40.506Z,93756.28
2024-03-03T00:13:43.545Z,93760.09
2024-03-03T00:14:45.650Z,93754.31
2024-03-03T00:15:48.633Z,93751.94
2024-03-03T00:16:51.238Z,93758.88
2024-03-03T00:17:54.619Z,93752.63
2024-03-03T00:18:57.868Z,93744.94
2024-03-03T00:20:03.167Z,93750.91
2024-03-03T00:21:05.818Z,93744.41
2024-03-03T00:22:08.919Z,93746.78
2024-03-03T00:23:10.894Z,93754.19
2024-03-03T00:24:13.970Z,93755.13
2024-03-03T00:25:16.149Z,93749.59
2024-03-03T00:26:19.189Z,93737.38
2024-03-03T00:27:21.193Z,93743.34
2024-03-03T00:28:24.148Z,93737.84
2024-03-03T00:29:26.207Z,93741.91
2024-03-03T00:30:29.154Z,93736.41
2024-03-03T00:31:31.240Z,93738.81
2024-03-03T00:32:34.405Z,93733.03
2024-03-03T00:33:36.539Z,93734.94
2024-03-03T00:34:39.901Z,93737.84
2024-03-03T00:35:43.217Z,93731.59
2024-03-03T00:36:45.198Z,93735.44
2024-03-03T00:37:48.192Z,93732.34
2024-03-03T00:38:51.050Z,93731.38
2024-03-03T00:39:54.038Z,93728.97
2024-03-03T00:40:56.325Z,93725.06
2024-03-03T00:41:59.357Z,93723.84
2024-03-03T00:43:01.453Z,93718.09
2024-03-03T00:44:04.529Z,93723.56
2024-03-03T00:45:07.436Z,93719.97
2024-03-03T00:46:10.390Z,93725.69
2024-03-03T00:47:12.376Z,93725.69
2024-03-03T00:48:15.353Z,93726.16
2024-03-03T00:49:18.153Z,93729.53
2024-03-03T00:50:21.235Z,93734.06
2024-03-03T00:51:24.579Z,93728.31
2024-03-03T00:52:27.570Z,93730.44
2024-03-03T00:53:29.515Z,93724.88
2024-03-03T00:54:32.451Z,93719.88
2024-03-03T00:55:35.027Z,93720.41
2024-03-03T00:56:38.208Z,93722.31
2024-03-03T00:57:59.596Z,93714.41
2024-03-03T00:59:02.688Z,93714.41
2024-03-03T01:00:05.955Z,93713.47
2024-03-03T01:01:08.871Z,93704.38
2024-03-03T01:02:11.145Z,93704.88
2024-03-03T01:03:14.478Z,93693.09
2024-03-03T01:04:16.771Z,93709.94
2024-03-03T01:05:19.849Z,93713.25
2024-03-03T01:06:22.563Z,93712.78
2024-03-03T01:07:28.884Z,93707.25
2024-03-03T01:08:31.466Z,93710.41
2024-03-03T01:09:34.568Z,93713.03
2024-03-03T01:10:36.506Z,93714.69
2024-03-03T01:11:39.817Z,93710.34
2024-03-03T01:12:41.883Z,93713.25
2024-03-03T01:13:46.376Z,93711.81
2024-03-03T01:14:48.327Z,93704.38
2024-03-03T01:15:50.329Z,93709.19
2024-03-03T01:16:53.397Z,93706.75
2024-03-03T01:17:55.702Z,93710.84
2024-03-03T01:18:58.674Z,93694.06
2024-03-03T01:20:00.802Z,93704.84
2024-03-03T01:21:04.977Z,93701.00
2024-03-03T01:22:07.661Z,93693.84
2024-03-03T01:23:13.621Z,93692.59
2024-03-03T01:24:15.717Z,93700.03
2024-03-03T01:25:18.759Z,93702.66
2024-03-03T01:26:20.717Z,93695.22
2024-03-03T01:27:23.679Z,93706.03
2024-03-03T01:28:25.721Z,93698.16
2024-03-03T01:29:28.772Z,93689.72
2024-03-03T01:30:30.725Z,93689.72
2024-03-03T01:31:33.743Z,93693.28
2024-03-03T01:32:35.942Z,93694.25
2024-03-03T01:33:38.910Z,93688.75
2024-03-03T01:34:41.483Z,93685.38
2024-03-03T01:35:44.407Z,93692.06
2024-03-03T01:36:46.469Z,93689.38
2024-03-03T01:37:49.501Z,93689.38
2024-03-03T01:38:52.860Z,93681.97
2024-03-03T01:39:55.970Z,93673.78
2024-03-03T01:40:57.908Z,93679.28
2024-03-03T01:42:00.807Z,93679.28
2024-03-03T01:43:04.882Z,93677.31
2024-03-03T01:44:07.993Z,93675.44
2024-03-03T01:45:19.557Z,93667.03
2024-03-03T01:46:22.556Z,93674.22
2024-03-03T01:47:24.625Z,93668.00
2024-03-03T01:48:27.014Z,93669.66
2024-03-03T01:49:33.449Z,93672.78
2024-03-03T01:50:37.674Z,93673.50
2024-03-03T01:51:42.518Z,93669.88
2024-03-03T01:52:45.770Z,93663.88
2024-03-03T01:53:54.451Z,93662.94
2024-03-03T01:54:57.037Z,93651.97
2024-03-03T01:56:00.293Z,93664.41
2024-03-03T01:57:03.375Z,93658.94
2024-03-03T01:58:08.419Z,93659.41
2024-03-03T01:59:11.744Z,93656.19
2024-03-03T02:00:15.300Z,93653.81
2024-03-03T02:01:18.421Z,93655.00
2024-03-03T02:02:21.670Z,93644.16
2024-03-03T02:03:24.115Z,93643.66
2024-03-03T02:04:27.564Z,93646.06
2024-03-03T02:05:31.344Z,93640.31
2024-03-03T02:06:36.332Z,93636.94
2024-03-03T02:07:38.728Z,93642.22
2024-03-03T02:08:43.022Z,93652.00
2024-03-03T02:09:46.902Z,93631.63
2024-03-03T02:10:50.746Z,93631.44
2024-03-03T02:11:52.847Z,93645.59
2024-03-03T02:12:55.969Z,93647.53
2024-03-03T02:13:58.673Z,93651.38
2024-03-03T02:15:01.664Z,93651.69
2024-03-03T02:16:04.206Z,93643.72
2024-03-03T02:17:07.200Z,93643.44
2024-03-03T02:18:09.242Z,93643.13
2024-03-03T02:19:12.299Z,93638.56
2024-03-03T02:20:14.317Z,93637.13
2024-03-03T02:21:17.652Z,93643.56
2024-03-03T02:22:21.140Z,93641.69
2024-03-03T02:23:24.081Z,93646.94
2024-03-03T02:24:26.044Z,93648.38
2024-03-03T02:25:29.138Z,93646.19
2024-03-03T02:26:31.777Z,93655.28
2024-03-03T02:27:35.008Z,93645.00
2024-03-03T02:28:38.183Z,93650.03
2024-03-03T02:29:40.445Z,93656.50
2024-03-03T02:30:43.475Z,93646.97
2024-03-03T02:31:45.460Z,93646.97
2024-03-03T02:32:48.435Z,93647.94
2024-03-03T02:33:50.512Z,93648.69
2024-03-03T02:34:53.531Z,93643.88
2024-03-03T02:35:55.555Z,93643.13
2024-03-03T02:36:58.537Z,93637.88
2024-03-03T02:38:01.852Z,93641.25
2024-03-03T02:39:04.856Z,93638.38
2024-03-03T02:40:08.623Z,93645.53
2024-03-03T02:41:10.553Z,93637.63
2024-03-03T02:42:13.494Z,93638.56
2024-03-03T02:43:15.529Z,93644.31
2024-03-03T02:44:17.494Z,93637.88
2024-03-03T02:45:20.476Z,93633.34
2024-03-03T02:46:22.467Z,93636.66
2024-03-03T02:47:25.501Z,93650.28
2024-03-03T02:48:27.498Z,93642.66
2024-03-03T02:49:30.509Z,93639.75
2024-03-03T02:50:32.481Z,93642.69
2024-03-03T02:51:35.396Z,93644.13
2024-03-03T02:52:37.700Z,93643.63
2024-03-03T02:53:41.006Z,93648.41
2024-03-03T02:54:44.149Z,93648.91
2024-03-03T02:55:46.227Z,93645.53
2024-03-03T02:56:49.173Z,93644.78
2024-03-03T02:57:51.151Z,93643.34
2024-03-03T02:58:53.111Z,93640.25
2024-03-03T02:59:56.817Z,93641.69
2024-03-03T03:00:58.983Z,93649.59
2024-03-03T03:02:02.419Z,93636.72
2024-03-03T03:03:04.651Z,93644.63
2024-03-03T03:04:07.613Z,93642.97
2024-03-03T03:05:10.598Z,93640.72
2024-03-03T03:06:13.633Z,93637.84
2024-03-03T03:07:15.904Z,93635.28
2024-03-03T03:08:18.923Z,93631.38
2024-03-03T03:09:22.756Z,93632.31
2024-03-03T03:10:25.723Z,93634.47
2024-03-03T03:11:27.774Z,93629.44
2024-03-03T03:12:29.737Z,93636.41
2024-03-03T03:13:32.684Z,93635.91
2024-03-03T03:14:34.632Z,93638.94
2024-03-03T03:15:37.882Z,93639.16
2024-03-03T03:16:41.922Z,93635.81
2024-03-03T03:17:45.076Z,93639.34
2024-03-03T03:18:47.592Z,93637.91
2024-03-03T03:19:50.822Z,93628.78
2024-03-03T03:20:52.835Z,93641.47
2024-03-03T03:21:55.798Z,93631.22
2024-03-03T03:22:57.897Z,93633.84
2024-03-03T03:23:59.917Z,93628.84
2024-03-03T03:25:06.349Z,93632.81
2024-03-03T03:26:08.566Z,93643.53
2024-03-03T03:27:11.502Z,93637.84
2024-03-03T03:28:13.502Z,93647.38
2024-03-03T03:29:15.650Z,93644.47
2024-03-03T03:30:18.555Z,93645.44
2024-03-03T03:31:20.641Z,93649.03
2024-03-03T03:32:23.778Z,93645.88
2024-03-03T03:33:25.692Z,93644.63
2024-03-03T03:34:28.630Z,93642.47
2024-03-03T03:35:30.738Z,93654.56
2024-03-03T03:36:33.775Z,93643.28
2024-03-03T03:37:35.786Z,93645.13
2024-03-03T03:38:39.188Z,93644.66
2024-03-03T03:39:41.398Z,93647.28
2024-03-03T03:40:45.657Z,93646.56
2024-03-03T03:41:49.050Z,93648.47
2024-03-03T03:42:51.997Z,93646.78
2024-03-03T03:43:54.445Z,93660.19
2024-03-03T03:44:57.482Z,93658.00
2024-03-03T03:45:59.515Z,93665.19
2024-03-03T03:47:03.337Z,93655.81
2024-03-03T03:48:05.941Z,93655.13
2024-03-03T03:49:10.714Z,93651.09
2024-03-03T03:50:12.721Z,93651.06
2024-03-03T03:51:15.671Z,93653.41
2024-03-03T03:52:18.611Z,93652.88
2024-03-03T03:53:22.570Z,93650.56
2024-03-03T03:54:24.712Z,93653.28
2024-03-03T03:55:27.673Z,93649.31
2024-03-03T03:56:31.046Z,93658.44
2024-03-03T03:57:33.000Z,93650.03
2024-03-03T03:58:36.345Z,93651.38
2024-03-03T03:59:38.629Z,93658.22
2024-03-03T04:00:41.624Z,93650.97
2024-03-03T04:01:43.802Z,93653.59
2024-03-03T04:02:46.799Z,93654.38
2024-03-03T04:03:48.917Z,93652.94
2024-03-03T04:04:51.870Z,93651.22
2024-03-03T04:05:53.820Z,93657.69
2024-03-03T04:06:55.785Z,93650.69
2024-03-03T04:07:58.707Z,93659.06
2024-03-03T04:09:02.369Z,93659.09
2024-03-03T04:10:06.646Z,93659.19
2024-03-03T04:11:09.463Z,93651.97
2024-03-03T04:12:14.134Z,93652.22
2024-03-03T04:13:16.247Z,93656.03
2024-03-03T04:14:19.168Z,93659.75
2024-03-03T04:15:21.144Z,93657.34
2024-03-03T04:16:24.167Z,93653.72
2024-03-03T04:17:26.164Z,93661.63
2024-03-03T04:18:31.498Z,93655.38
2024-03-03T04:19:34.136Z,93659.06
2024-03-03T04:20:37.500Z,93653.59
2024-03-03T04:21:41.692Z,93658.94
2024-03-03T04:22:44.725Z,93660.09
2024-03-03T04:23:46.668Z,93660.09
2024-03-03T04:24:49.583Z,93654.59
2024-03-03T04:25:51.598Z,93655.50
2024-03-03T04:26:53.570Z,93663.34
2024-03-03T04:27:57.914Z,93638.06
2024-03-03T04:29:00.293Z,93655.63
2024-03-03T04:30:03.254Z,93655.91
2024-03-03T04:31:06.960Z,93650.34
2024-03-03T04:32:10.209Z,93652.09
2024-03-03T04:33:13.673Z,93630.44
2024-03-03T04:34:16.782Z,93651.91
2024-03-03T04:35:18.890Z,93648.91
2024-03-03T04:36:21.856Z,93656.97
2024-03-03T04:37:23.868Z,93648.09
2024-03-03T04:38:26.841Z,93647.91
2024-03-03T04:39:29.542Z,93657.22
2024-03-03T04:40:32.571Z,93655.47
2024-03-03T04:41:34.738Z,93653.81
2024-03-03T04:42:37.726Z,93649.41
2024-03-03T04:43:41.168Z,93647.72
2024-03-03T04:44:44.212Z,93641.19
2024-03-03T04:45:47.678Z,93640.22
2024-03-03T04:46:50.582Z,93641.19
2024-03-03T04:47:52.597Z,93647.91
2024-03-03T04:48:55.563Z,93646.72
2024-03-03T04:49:57.596Z,93651.38
2024-03-03T04:51:00.536Z,93657.44
2024-03-03T04:52:02.616Z,93642.91
2024-03-03T04:53:05.895Z,93653.34
2024-03-03T04:54:08.022Z,93647.84
2024-03-03T04:55:11.073Z,93648.09
2024-03-03T04:56:13.046Z,93654.59
2024-03-03T04:57:16.044Z,93648.91
2024-03-03T04:58:18.435Z,93650.06
2024-03-03T04:59:21.821Z,93653.16
2024-03-03T05:00:24.818Z,93658.94
2024-03-03T05:01:27.761Z,93665.16
2024-03-03T05:02:31.197Z,93659.88
2024-03-03T05:03:33.222Z,93661.38
2024-03-03T05:04:36.129Z,93663.66
2024-03-03T05:05:38.437Z,93657.28
2024-03-03T05:06:49.774Z,93660.63
2024-03-03T05:07:51.820Z,93661.56
2024-03-03T05:08:54.768Z,93659.88
2024-03-03T05:09:57.293Z,93662.22
2024-03-03T05:11:00.298Z,93659.59
2024-03-03T05:12:02.529Z,93660.00
2024-03-03T05:13:05.851Z,93659.72
2024-03-03T05:14:07.825Z,93667.63
2024-03-03T05:15:11.399Z,93665.78
2024-03-03T05:16:14.421Z,93664.84
2024-03-03T05:17:16.401Z,93665.44
2024-03-03T05:18:20.122Z,93669.09
2024-03-03T05:19:24.022Z,93667.34
2024-03-03T05:20:26.955Z,93671.59
2024-03-03T05:21:29.448Z,93664.66
2024-03-03T05:22:31.433Z,93664.38
2024-03-03T05:23:34.452Z,93669.72
2024-03-03T05:24:36.643Z,93668.00
2024-03-03T05:25:39.618Z,93670.63
2024-03-03T05:26:41.635Z,93672.25
2024-03-03T05:27:44.585Z,93680.81
2024-03-03T05:28:47.692Z,93679.03
2024-03-03T05:29:50.644Z,93684.38
2024-03-03T05:30:53.954Z,93680.69
2024-03-03T05:31:57.092Z,93680.88
2024-03-03T05:32:59.036Z,93684.38
2024-03-03T05:34:03.150Z,93682.44
2024-03-03T05:35:06.887Z,93687.97
2024-03-03T05:36:09.884Z,93681.34
2024-03-03T05:37:12.227Z,93683.50
2024-03-03T05:38:16.274Z,93688.03
2024-03-03T05:39:18.490Z,93682.84
2024-03-03T05:40:22.086Z,93687.91
2024-03-03T05:41:26.576Z,93679.13
2024-03-03T05:42:29.529Z,93673.53
2024-03-03T05:43:31.570Z,93685.53
2024-03-03T05:44:36.417Z,93681.91
2024-03-03T05:45:39.194Z,93683.75
2024-03-03T05:46:43.622Z,93686.38
2024-03-03T05:47:45.603Z,93683.22
2024-03-03T05:48:48.612Z,93685.19
2024-03-03T05:49:50.636Z,93680.44
2024-03-03T05:50:52.555Z,93682.06
2024-03-03T05:51:55.513Z,93683.06
2024-03-03T05:52:57.434Z,93687.38
2024-03-03T05:54:02.517Z,93686.84
2024-03-03T05:55:05.186Z,93685.16
2024-03-03T05:56:08.635Z,93681.34
2024-03-03T05:57:12.371Z,93675.63
2024-03-03T05:58:15.342Z,93683.56
2024-03-03T05:59:17.402Z,93681.47
2024-03-03T06:00:20.563Z,93671.72
2024-03-03T06:01:22.709Z,93669.63
2024-03-03T06:02:26.999Z,93670.63
2024-03-03T06:03:29.203Z,93664.47
2024-03-03T06:04:36.551Z,93684.41
2024-03-03T06:05:38.547Z,93683.97
2024-03-03T06:06:41.464Z,93682.06
2024-03-03T06:07:43.462Z,93683.72
2024-03-03T06:08:46.702Z,93684.69
2024-03-03T06:09:49.090Z,93688.66
2024-03-03T06:10:52.379Z,93685.53
2024-03-03T06:11:54.370Z,93684.50
2024-03-03T06:12:57.326Z,93692.38
2024-03-03T06:13:59.345Z,93696.00
2024-03-03T06:15:01.354Z,93698.50
2024-03-03T06:16:05.695Z,93702.69
2024-03-03T06:17:08.740Z,93702.63
2024-03-03T06:18:13.035Z,93699.19
2024-03-03T06:19:15.038Z,93696.72
2024-03-03T06:20:18.104Z,93702.97
2024-03-03T06:21:20.108Z,93699.19
2024-03-03T06:22:23.186Z,93701.03
2024-03-03T06:23:26.321Z,93700.16
2024-03-03T06:24:29.259Z,93688.38
2024-03-03T06:25:32.695Z,93693.19
2024-03-03T06:26:36.425Z,93691.53
2024-03-03T06:27:38.385Z,93693.03
2024-03-03T06:28:42.495Z,93695.53
2024-03-03T06:29:44.429Z,93699.84
2024-03-03T06:30:47.450Z,93690.16
2024-03-03T06:31:50.299Z,93693.22
2024-03-03T06:32:53.327Z,93694.09
2024-03-03T06:33:56.721Z,93692.78
2024-03-03T06:34:59.629Z,93691.63
2024-03-03T06:36:01.606Z,93697.16
2024-03-03T06:37:04.726Z,93699.13
2024-03-03T06:38:06.798Z,93690.44
2024-03-03T06:39:11.541Z,93692.25
2024-03-03T06:40:13.890Z,93690.06
2024-03-03T06:41:17.484Z,93692.69
2024-03-03T06:42:19.731Z,93678.56
2024-03-03T06:43:22.780Z,93695.38
2024-03-03T06:44:24.789Z,93672.75
2024-03-03T06:45:26.767Z,93687.94
2024-03-03T06:46:29.659Z,93690.97
2024-03-03T06:47:33.260Z,93686.19
2024-03-03T06:48:36.182Z,93689.53
2024-03-03T06:49:40.236Z,93679.53
2024-03-03T06:50:43.527Z,93680.31
2024-03-03T06:51:45.498Z,93681.38
2024-03-03T06:52:48.436Z,93678.38
2024-03-03T06:53:50.408Z,93682.75
2024-03-03T06:54:53.359Z,93690.41
2024-03-03T06:55:55.366Z,93690.72
2024-03-03T06:56:57.322Z,93690.50
2024-03-03T06:58:00.423Z,93684.53
2024-03-03T06:59:02.420Z,93692.44
2024-03-03T07:00:07.356Z,93679.75
2024-03-03T07:01:09.501Z,93687.84
2024-03-03T07:02:12.755Z,93684.53
2024-03-03T07:03:30.514Z,93681.16
2024-03-03T07:04:33.493Z,93689.91
2024-03-03T07:05:36.870Z,93691.16
2024-03-03T07:06:39.829Z,93685.44
2024-03-03T07:07:41.902Z,93684.63
2024-03-03T07:08:43.866Z,93685.16
2024-03-03T07:09:46.812Z,93682.84
2024-03-03T07:10:48.817Z,93677.56
2024-03-03T07:11:53.140Z,93681.63
2024-03-03T07:12:55.143Z,93683.56
2024-03-03T07:13:57.173Z,93694.97
2024-03-03T07:15:00.063Z,93687.09
2024-03-03T07:16:02.374Z,93691.47
2024-03-03T07:17:05.423Z,93690.94
2024-03-03T07:18:07.550Z,93685.16
2024-03-03T07:19:10.571Z,93687.34
2024-03-03T07:20:12.729Z,93690.88
2024-03-03T07:21:17.146Z,93691.16
2024-03-03T07:22:19.074Z,93692.75
2024-03-03T07:23:22.032Z,93692.72
2024-03-03T07:24:25.333Z,93690.13
2024-03-03T07:25:28.762Z,93689.19
2024-03-03T07:26:31.083Z,93694.50
2024-03-03T07:27:34.516Z,93687.13
2024-03-03T07:28:36.565Z,93686.88
2024-03-03T07:29:39.969Z,93691.41
2024-03-03T07:30:42.211Z,93685.31
2024-03-03T07:31:45.183Z,93684.38
2024-03-03T07:32:47.136Z,93690.47
2024-03-03T07:33:49.296Z,93688.97
2024-03-03T07:34:52.265Z,93685.41
2024-03-03T07:35:54.258Z,93682.25
2024-03-03T07:36:58.795Z,93684.47
2024-03-03T07:38:01.485Z,93687.19
2024-03-03T07:39:07.121Z,93684.94
2024-03-03T07:40:10.916Z,93693.25
2024-03-03T07:41:14.075Z,93692.06
2024-03-03T07:42:16.124Z,93685.38
2024-03-03T07:43:19.211Z,93697.66
2024-03-03T07:44:21.252Z,93700.59
2024-03-03T07:45:24.388Z,93705.69
2024-03-03T07:46:26.418Z,93692.63
2024-03-03T07:47:30.751Z,93693.63
2024-03-03T07:48:32.866Z,93696.28
2024-03-03T07:49:34.880Z,93696.13
2024-03-03T07:50:37.949Z,93693.09
2024-03-03T07:51:40.104Z,93697.97
2024-03-03T07:52:43.454Z,93702.38
2024-03-03T07:53:47.229Z,93700.63
2024-03-03T07:54:49.400Z,93701.97
2024-03-03T07:55:52.370Z,93698.66
2024-03-03T07:56:54.665Z,93704.78
2024-03-03T07:57:57.622Z,93701.78
2024-03-03T07:59:04.746Z,93688.09
2024-03-03T08:00:09.944Z,93694.34
2024-03-03T08:01:17.826Z,93700.53
2024-03-03T08:02:20.833Z,93699.59
2024-03-03T08:03:22.746Z,93704.66
2024-03-03T08:04:27.189Z,93701.59
2024-03-03T08:05:29.176Z,93698.63
2024-03-03T08:06:32.218Z,93705.84
2024-03-03T08:07:34.196Z,93697.38
2024-03-03T08:08:38.562Z,93703.50
2024-03-03T08:09:40.635Z,93709.22
2024-03-03T08:10:42.740Z,93716.53
2024-03-03T08:11:45.802Z,93715.44
2024-03-03T08:12:47.856Z,93714.28
2024-03-03T08:13:50.833Z,93719.59
2024-03-03T08:14:52.774Z,93717.22
2024-03-03T08:15:55.885Z,93717.94
2024-03-03T08:16:57.907Z,93714.97
2024-03-03T08:18:02.255Z,93710.28
2024-03-03T08:19:04.864Z,93705.72
2024-03-03T08:20:08.941Z,93705.22
2024-03-03T08:21:13.356Z,93705.25
2024-03-03T08:22:16.428Z,93701.63
2024-03-03T08:23:18.749Z,93697.53
2024-03-03T08:24:23.094Z,93699.72
2024-03-03T08:25:25.887Z,93702.59
2024-03-03T08:26:29.205Z,93700.69
2024-03-03T08:27:31.169Z,93701.38
2024-03-03T08:28:35.720Z,93701.63
2024-03-03T08:29:38.174Z,93699.94
2024-03-03T08:30:41.175Z,93705.47
2024-03-03T08:31:45.828Z,93705.47
2024-03-03T08:32:49.049Z,93709.22
2024-03-03T08:33:51.119Z,93715.41
2024-03-03T08:34:53.244Z,93701.59
2024-03-03T08:35:56.229Z,93698.75
2024-03-03T08:36:58.264Z,93707.13
2024-03-03T08:38:01.375Z,93705.66
2024-03-03T08:39:04.283Z,93700.84
2024-03-03T08:40:11.100Z,93705.66
2024-03-03T08:41:13.198Z,93711.19
2024-03-03T08:42:16.334Z,93698.38
2024-03-03T08:43:19.432Z,93700.75
2024-03-03T08:44:24.110Z,93702.88
2024-03-03T08:45:27.434Z,93703.34
2024-03-03T08:46:30.559Z,93695.75
2024-03-03T08:47:32.695Z,93700.19
2024-03-03T08:48:35.705Z,93694.13
2024-03-03T08:49:37.684Z,93702.13
2024-03-03T08:50:40.685Z,93700.13
2024-03-03T08:51:43.820Z,93704.56
2024-03-03T08:52:46.828Z,93705.47
2024-03-03T08:53:48.816Z,93696.25
2024-03-03T08:54:51.822Z,93699.75
2024-03-03T08:55:55.191Z,93703.69
2024-03-03T08:56:58.562Z,93699.41
2024-03-03T08:58:00.624Z,93699.22
2024-03-03T08:59:04.221Z,93700.56
2024-03-03T09:00:14.242Z,93706.41
2024-03-03T09:01:17.494Z,93705.00
2024-03-03T09:02:19.788Z,93701.47
2024-03-03T09:03:23.002Z,93707.88
2024-03-03T09:04:25.071Z,93709.91
2024-03-03T09:05:28.694Z,93694.69
2024-03-03T09:06:30.693Z,93694.44
2024-03-03T09:07:33.680Z,93691.78
2024-03-03T09:08:37.689Z,93697.34
2024-03-03T09:09:42.899Z,93690.56
2024-03-03T09:10:47.440Z,93693.50
2024-03-03T09:11:51.847Z,93694.44
2024-03-03T09:12:54.634Z,93692.03
2024-03-03T09:13:57.641Z,93700.91
2024-03-03T09:14:59.773Z,93693.25
2024-03-03T09:16:02.777Z,93686.19
2024-03-03T09:17:04.795Z,93688.91
2024-03-03T09:18:08.230Z,93690.72
2024-03-03T09:19:10.455Z,93687.41
2024-03-03T09:20:14.387Z,93688.38
2024-03-03T09:21:16.668Z,93692.72
2024-03-03T09:22:19.733Z,93682.81
2024-03-03T09:23:21.735Z,93686.28
2024-03-03T09:24:26.609Z,93691.53
2024-03-03T09:25:28.880Z,93693.75
2024-03-03T09:26:31.930Z,93688.94
2024-03-03T09:27:36.323Z,93685.38
2024-03-03T09:28:40.207Z,93686.66
2024-03-03T09:29:42.028Z,93684.53
2024-03-03T09:30:45.033Z,93689.66
2024-03-03T09:31:47.388Z,93683.53
2024-03-03T09:32:53.529Z,93681.44
2024-03-03T09:33:55.620Z,93677.41
2024-03-03T09:34:57.597Z,93673.38
2024-03-03T09:36:00.940Z,93678.00
2024-03-03T09:37:02.987Z,93675.34
2024-03-03T09:38:06.641Z,93672.22
2024-03-03T09:39:08.766Z,93678.56
2024-03-03T09:40:16.286Z,93667.13
2024-03-03T09:41:18.948Z,93680.97
2024-03-03T09:42:22.021Z,93673.69
2024-03-03T09:43:29.645Z,93669.38
2024-03-03T09:44:42.778Z,93676.38
2024-03-03T09:45:45.311Z,93682.84
2024-03-03T09:46:50.156Z,93680.38
2024-03-03T09:47:52.501Z,93679.19
2024-03-03T09:48:57.875Z,93675.94
2024-03-03T09:50:00.781Z,93679.38
2024-03-03T09:51:02.871Z,93685.78
2024-03-03T09:52:10.564Z,93679.88
2024-03-03T09:53:13.796Z,93682.66
2024-03-03T09:54:17.924Z,93673.31
2024-03-03T09:55:20.711Z,93669.81
2024-03-03T09:56:25.908Z,93675.66
2024-03-03T09:57:32.705Z,93678.94
2024-03-03T09:58:37.083Z,93679.03
2024-03-03T09:59:39.424Z,93669.41
2024-03-03T10:00:43.358Z,93670.13
2024-03-03T10:01:51.076Z,93667.09
2024-03-03T10:02:56.868Z,93679.66
2024-03-03T10:04:00.339Z,93678.13
2024-03-03T10:05:05.696Z,93677.38
2024-03-03T10:06:11.734Z,93670.97
2024-03-03T10:07:25.284Z,93676.59
2024-03-03T10:08:28.885Z,93674.94
2024-03-03T10:09:33.478Z,93671.34
2024-03-03T10:10:37.413Z,93676.47
2024-03-03T10:11:43.973Z,93675.97
2024-03-03T10:12:47.637Z,93671.22
2024-03-03T10:13:53.695Z,93674.28
2024-03-03T10:14:58.277Z,93672.19
2024-03-03T10:16:04.035Z,93661.44
2024-03-03T10:17:06.500Z,93661.72
2024-03-03T10:18:10.362Z,93666.19
2024-03-03T10:19:12.401Z,93661.59
2024-03-03T10:20:15.456Z,93667.91
2024-03-03T10:21:18.613Z,93660.13
2024-03-03T10:22:22.671Z,93663.56
2024-03-03T10:23:25.586Z,93658.00
2024-03-03T10:24:30.507Z,93653.28
2024-03-03T10:25:32.729Z,93657.03
2024-03-03T10:26:38.895Z,93662.34
2024-03-03T10:27:42.690Z,93654.50
2024-03-03T10:29:06.043Z,93654.56
2024-03-03T10:30:10.718Z,93660.22
2024-03-03T10:31:16.836Z,93649.53
2024-03-03T10:32:19.087Z,93656.63
2024-03-03T10:33:22.310Z,93655.00
2024-03-03T10:34:25.425Z,93655.03
2024-03-03T10:35:28.860Z,93661.47
2024-03-03T10:36:33.730Z,93660.13
2024-03-03T10:37:36.688Z,93658.41
2024-03-03T10:38:38.916Z,93657.00
2024-03-03T10:39:42.187Z,93655.06
2024-03-03T10:40:44.677Z,93648.19
2024-03-03T10:41:47.696Z,93662.28
2024-03-03T10:42:50.279Z,93665.50
2024-03-03T10:43:52.532Z,93664.81
2024-03-03T10:44:56.861Z,93655.63
2024-03-03T10:45:58.794Z,93650.16
2024-03-03T10:47:01.653Z,93659.22
2024-03-03T10:48:04.120Z,93647.94
2024-03-03T10:49:07.328Z,93655.75
2024-03-03T10:50:14.544Z,93648.97
2024-03-03T10:51:20.811Z,93646.75
2024-03-03T10:52:22.795Z,93658.38
2024-03-03T10:53:31.381Z,93644.50
2024-03-03T10:54:35.186Z,93646.09
2024-03-03T10:55:39.022Z,93652.19
2024-03-03T10:56:42.598Z,93643.94
2024-03-03T10:57:46.333Z,93644.16
2024-03-03T10:58:49.325Z,93645.72
2024-03-03T10:59:54.342Z,93637.84
2024-03-03T11:00:58.302Z,93638.13
2024-03-03T11:02:03.636Z,93641.75
2024-03-03T11:03:10.487Z,93637.09
2024-03-03T11:04:15.762Z,93639.16
2024-03-03T11:05:17.861Z,93636.28
2024-03-03T11:06:21.055Z,93630.41
2024-03-03T11:07:23.602Z,93635.75
2024-03-03T11:08:26.865Z,93631.63
2024-03-03T11:09:28.968Z,93628.94
2024-03-03T11:10:33.194Z,93624.44
2024-03-03T11:11:38.889Z,93634.25
2024-03-03T11:12:44.761Z,93632.19
2024-03-03T11:13:52.604Z,93637.16
2024-03-03T11:14:58.297Z,93626.78
2024-03-03T11:16:05.177Z,93630.97
2024-03-03T11:17:13.794Z,93628.88
2024-03-03T11:18:18.979Z,93630.75
2024-03-03T11:19:28.809Z,93627.59
2024-03-03T11:20:37.195Z,93624.00
2024-03-03T11:21:47.642Z,93628.34
2024-03-03T11:22:59.744Z,93619.47
2024-03-03T11:24:06.806Z,93627.44
2024-03-03T11:25:13.563Z,93610.41
2024-03-03T11:26:25.240Z,93622.91
2024-03-03T11:27:30.298Z,93622.44
2024-03-03T11:28:36.318Z,93615.47
2024-03-03T11:29:39.418Z,93610.38
2024-03-03T11:30:43.777Z,93606.69
2024-03-03T11:31:48.201Z,93614.34
2024-03-03T11:32:52.703Z,93615.81
2024-03-03T11:33:56.262Z,93610.28
2024-03-03T11:35:00.557Z,93600.59
2024-03-03T11:36:03.080Z,93599.16
2024-03-03T11:37:07.476Z,93594.28
2024-03-03T11:38:09.472Z,93598.09
2024-03-03T11:39:16.554Z,93594.13
2024-03-03T11:40:20.888Z,93586.69
2024-03-03T11:41:24.414Z,93589.00
2024-03-03T11:42:38.701Z,93587.66
2024-03-03T11:43:42.015Z,93583.91
2024-03-03T11:44:51.924Z,93584.09
2024-03-03T11:46:00.070Z,93583.78
2024-03-03T11:47:05.761Z,93581.59
2024-03-03T11:48:10.838Z,93587.81
2024-03-03T11:49:13.994Z,93582.16
2024-03-03T11:50:20.121Z,93577.28
2024-03-03T11:51:27.183Z,93582.81
2024-03-03T11:52:40.758Z,93577.34
2024-03-03T11:53:44.730Z,93575.31
2024-03-03T11:54:53.528Z,93569.84
2024-03-03T11:55:57.967Z,93573.88
2024-03-03T11:57:00.622Z,93574.28
2024-03-03T11:58:06.499Z,93580.19
2024-03-03T11:59:08.945Z,93568.03
2024-03-03T12:00:18.296Z,93567.19
2024-03-03T12:01:23.887Z,93565.59
2024-03-03T12:02:28.053Z,93556.78
2024-03-03T12:03:31.123Z,93554.06
2024-03-03T12:04:33.371Z,93564.34
2024-03-03T12:05:36.907Z,93566.66
2024-03-03T12:06:43.785Z,93563.94
2024-03-03T12:07:47.507Z,93560.28
2024-03-03T12:08:56.047Z,93554.66
2024-03-03T12:09:58.437Z,93561.91
2024-03-03T12:11:01.825Z,93559.59
2024-03-03T12:12:05.085Z,93559.06
2024-03-03T12:13:08.335Z,93556.31
2024-03-03T12:14:10.484Z,93551.22
2024-03-03T12:15:12.954Z,93548.16
2024-03-03T12:16:16.260Z,93555.91
2024-03-03T12:17:18.620Z,93552.25
2024-03-03T12:18:26.424Z,93556.34
2024-03-03T12:19:33.460Z,93545.34
2024-03-03T12:20:38.163Z,93549.53
2024-03-03T12:21:41.133Z,93545.72
2024-03-03T12:22:43.707Z,93552.75
2024-03-03T12:23:46.811Z,93535.25
2024-03-03T12:24:56.177Z,93545.88